• Join FlightAware (Why Join?)
  • Login
  • US Flag 
01:59AM EDT


 

Airport Tracker/Info


-or-


 

Live Flight TrackerFlight Track Log ✈ EJM918 ✈ 02-Aug-2013 ✈ KPWM - KAUG

Flight Track Log - Related Links

Times and Time Zones

All times are in EDT time to prevent confusion due to time zone crossing. See the EJM918 flight status page for this flight to view local times or setup timezone preferences in your user account.

Time Position Orientation Groundspeed Altitude Reporting Facility
EDT Latitude Longitude Course Direction KTS MPH feet Rate Location/Type
11:02AM 43.7710 -70.2045 29° Northeast  Level FlightAware Approximate
11:03AM 43.7938 -70.1871 29° Northeast  Level FlightAware Approximate
11:04AM 43.8166 -70.1697 29° Northeast  Level FlightAware Approximate
11:05AM 43.8394 -70.1523 29° Northeast  Level FlightAware Approximate
11:06AM 43.8622 -70.1348 29° Northeast  Level FlightAware Approximate
11:07AM 43.8849 -70.1173 29° Northeast  Level FlightAware Approximate
11:08AM 43.9077 -70.0999 29° Northeast  Level FlightAware Approximate
11:09AM 43.9305 -70.0824 29° Northeast  Level FlightAware Approximate
11:10AM 43.9533 -70.0649 29° Northeast  Level FlightAware Approximate
11:11AM 43.9760 -70.0473 29° Northeast  Level FlightAware Approximate
11:12AM 43.9988 -70.0298 29° Northeast  Level FlightAware Approximate
11:13AM 44.0215 -70.0123 29° Northeast  Level FlightAware Approximate
11:14AM 44.0443 -69.9947 29° Northeast  Level FlightAware Approximate
11:15AM 44.0671 -69.9771 29° Northeast  Level FlightAware Approximate
11:16AM 44.0898 -69.9595 29° Northeast  Level FlightAware Approximate
11:17AM 44.1125 -69.9419 29° Northeast  Level FlightAware Approximate
11:18AM 44.1353 -69.9243 29° Northeast  Level FlightAware Approximate
11:19AM 44.1580 -69.9067 29° Northeast  Level FlightAware Approximate
11:20AM 44.1828 -69.9000 North  Level FlightAware Approximate
11:21AM 44.2041 -69.8793 36° Northeast  Level FlightAware Approximate
11:22AM 44.2252 -69.8581 36° Northeast  Level FlightAware Approximate
11:23AM 44.2464 -69.8370 36° Northeast  Level FlightAware Approximate
11:24AM 44.2690 -69.8191 28° Northeast  Level FlightAware Approximate
11:25AM 44.2919 -69.8019 28° Northeast  Level FlightAware Approximate
11:26AM 44.3149 -69.7847 28° Northeast  Level FlightAware Approximate
11:27AM 44.3167 -69.7833 28° Northeast  Level FlightAware Approximate
11:28AM 44.3206 -69.7973 28° Northeast  Level Estimated
11:29AM 44.3206 -69.7973 28° Northeast  Level Estimated
11:30AM 44.3206 -69.7973 28° Northeast  Level Estimated
11:31AM 44.3206 -69.7973 28° Northeast  Level Estimated
11:32AM 44.3206 -69.7973 28° Northeast  Level Estimated
11:33AM 44.3206 -69.7973 28° Northeast  Level Estimated
11:34AM 44.3206 -69.7973 28° Northeast  Level Estimated
11:35AM 44.3206 -69.7973 28° Northeast  Level Estimated
11:36AM 44.3206 -69.7973 28° Northeast  Level Estimated
11:37AM 44.3206 -69.7973 28° Northeast  Level Estimated
11:38AM 44.3206 -69.7973 28° Northeast  Level Estimated
11:39AM 44.3206 -69.7973 28° Northeast  Level Estimated
11:40AM 44.3206 -69.7973 28° Northeast  Level Estimated
11:41AM 44.3206 -69.7973 28° Northeast  Level Estimated
11:42AM 44.3206 -69.7973 28° Northeast  Level Estimated